Aquasco, Maryland
Current Conditions -  °F | °C
As of 4:58 AM on Monday 26 Jan 2015 (Local Time) from KADW Reporting Station
Light Rain Light Rain  
Wind Chill: 31°   Ceiling: 3400
Heat Index: 38°   Visibility: 7mi
Dew Point: 36°   Wind: 9mph
Humidity: 93%   Direction: 60°ENE
Pressure: 29.79"   Gusts: NA
Location:  38.58°N, 76.73°W
Report Text: KADW 260958Z AUTO 06008KT 7SM -RA FEW020 OVC034 03/02 A2979 RMK AO2 SLP096 P0003 T00330023 $
Loading
Personal Weather Stations






























Interactive Weather Map New forecast layout! Learn more

10-Day Weather Forecast

Advertisements
Track Severe Weather on mobile